Mesa Verde, CO (81330)

6:03 AM MDT on September 05, 2015 (GMT -0600)
RAWS | | Change Station
CLOSE
Current Station
Personal Weather Station
Location: Mesa Verde, CO
Elevation: 7819 ft
Nearby Weather Stations

Elev 7819 ft 37.30 °N, 108.41 °W | Updated 1 hour ago

Overcast
Overcast
51.0 °F
Feels Like 51.0 °F
N
1.0
Wind Variable Wind from ENE
Gusts 3.0 mph

Today
High -- | Low -- °F
--% Chance of Precip.
Yesterday
High -- | Low -- °F
Precip. -- in
6:47 AM 7:36 PM
Waning Gibbous, 49% visible
Pressure 29.95 in
Visibility 10.0 miles
Clouds Overcast 8500 ft
Dew Point 50.0 °F
Humidity 97%
Rainfall in
Snow Depth Not available.
UV 0 out of 12
Pollen 1.20 out of 12
Air Quality Not available.
Flu Activity Not available.
METAR KCEZ 051153Z AUTO 00000KT 10SM OVC085 13/12 A3014 RMK AO2 SLP141 60006 70013 T01330122 10150 20128 51004
Pressure 29.95 in
Visibility 10.0 miles
Clouds Overcast 8500 ft
Dew Point 50.0 °F
Humidity 97%
Rainfall in
Snow Depth Not available.
UV 0 out of 12
Pollen 1.20 out of 12
Air Quality Not available.
Flu Activity Not available.
METAR KCEZ 051153Z AUTO 00000KT 10SM OVC085 13/12 A3014 RMK AO2 SLP141 60006 70013 T01330122 10150 20128 51004

10-Day Weather Forecast

×

Almanac

Astronomy

Sep. 05, 2015 Rise Set
Actual Time
Civil Twilight
Nautical Twilight
Astronomical Twilight
Moon
Length of Visible Light
Length of Day
Tomorrow will be .
, % of the Moon is Illuminated

Today's Extremes

State Highs State Lows

Community

WunderPhotos

Upload Photos

1,852,453 photos uploaded!

WunderBlogs® & News

Nearby

Air Quality

  Air Quality AQ Index Pollutant
Not available.

Snow Depth

Station Depth Elevation

Earthquake Activity

City Distance Mag. Time & Date
Minimum magnitude displayed is 2.5.

Coastal Water Temperatures

Place Temperature

Stations

Nearby Weather Stations

Station Location Temp. Windchill Dew Point Humidity Wind Precip. Elev Updated Type